createdAt,value
2022-12-17T00:00:46.725Z,-4.45772
2022-12-17T00:05:48.362Z,-4.15637
2022-12-17T00:10:50.181Z,-3.79691
2022-12-17T00:15:51.843Z,-4.69176
2022-12-17T00:20:53.634Z,-4.78734
2022-12-17T00:25:55.363Z,-5.30144
2022-12-17T00:30:57.951Z,-5.17569
2022-12-17T00:35:59.637Z,-5.2935
2022-12-17T00:41:01.325Z,-5.29128
2022-12-17T00:46:03.053Z,-5.53325
2022-12-17T00:51:04.698Z,-5.31319
2022-12-17T00:56:06.323Z,-5.52848
2022-12-17T01:01:07.962Z,-5.60088
2022-12-17T01:06:09.652Z,-5.55484
2022-12-17T01:11:11.642Z,-5.35415
2022-12-17T01:16:13.341Z,-5.15791
2022-12-17T01:21:15.040Z,-4.70605
2022-12-17T01:26:16.663Z,-5.37067
2022-12-17T01:31:18.463Z,-5.83491
2022-12-17T01:36:20.147Z,-4.98072
2022-12-17T01:41:21.970Z,-4.5098
2022-12-17T01:46:23.636Z,-5.25032
2022-12-17T01:51:25.408Z,-5.5234
2022-12-17T01:56:27.043Z,-5.59009
2022-12-17T02:01:29.015Z,-5.53706
2022-12-17T02:06:30.673Z,-5.0944
2022-12-17T02:11:32.234Z,-5.90636
2022-12-17T02:16:33.946Z,-5.57612
2022-12-17T02:21:35.598Z,-5.56881
2022-12-17T02:26:37.304Z,-5.45259
2022-12-17T02:31:38.952Z,-5.23253
2022-12-17T02:36:40.611Z,-5.4491
2022-12-17T02:41:42.318Z,-5.53198
2022-12-17T02:46:43.896Z,-5.08011
2022-12-17T02:51:45.630Z,-5.38623
2022-12-17T02:56:47.242Z,-5.67582
2022-12-17T03:01:49.090Z,-5.41861
2022-12-17T03:06:50.861Z,-5.29541
2022-12-17T03:11:52.517Z,-5.67201
2022-12-17T03:16:54.217Z,-5.4564
2022-12-17T03:21:55.858Z,-5.0509
2022-12-17T03:26:57.498Z,-5.73616
2022-12-17T03:31:59.148Z,-5.18268
2022-12-17T03:37:00.772Z,-5.00517
2022-12-17T03:42:02.620Z,-5.92954
2022-12-17T03:47:04.270Z,-5.73235
2022-12-17T03:52:05.896Z,-5.36146
2022-12-17T03:57:10.612Z,-5.64375
2022-12-17T04:02:16.558Z,-5.6447
2022-12-17T04:07:18.283Z,-5.52372
2022-12-17T04:12:19.888Z,-5.96542
2022-12-17T04:17:21.542Z,-5.67328
2022-12-17T04:22:23.219Z,-5.14584
2022-12-17T04:27:24.834Z,-5.90826
2022-12-17T04:32:28.240Z,-5.77299
2022-12-17T04:37:32.886Z,-5.95081
2022-12-17T04:42:34.510Z,-5.92763
2022-12-17T04:47:36.118Z,-6.18992
2022-12-17T04:52:37.724Z,-6.15436
2022-12-17T04:57:39.360Z,-5.28715
2022-12-17T05:02:42.788Z,-4.89626
2022-12-17T05:07:44.794Z,-5.813
2022-12-17T05:12:46.508Z,-6.11816
2022-12-17T05:17:48.151Z,-5.96193
2022-12-17T05:22:49.781Z,-5.62406
2022-12-17T05:27:51.448Z,-5.52721
2022-12-17T05:32:53.119Z,-5.4872
2022-12-17T05:37:54.716Z,-5.82189
2022-12-17T05:42:56.371Z,-4.96866
2022-12-17T05:47:58.065Z,-5.44402
2022-12-17T05:52:59.743Z,-5.84031
2022-12-17T05:58:01.326Z,-5.79871
2022-12-17T06:03:03.098Z,-5.46307
2022-12-17T06:08:04.792Z,-5.8781
2022-12-17T06:13:06.409Z,-6.08926
2022-12-17T06:18:13.601Z,-6.03147
2022-12-17T06:23:18.262Z,-5.36368
2022-12-17T06:28:19.901Z,-5.95748
2022-12-17T06:33:21.556Z,-6.27979
2022-12-17T06:38:23.157Z,-6.35663
2022-12-17T06:43:24.789Z,-6.12673
2022-12-17T06:48:26.460Z,-6.32202
2022-12-17T06:53:28.325Z,-5.97749
2022-12-17T06:58:29.917Z,-5.82793
2022-12-17T07:03:31.585Z,-6.17373
2022-12-17T07:08:33.239Z,-6.23755
2022-12-17T07:13:35.279Z,-6.02163
2022-12-17T07:18:37.204Z,-6.17436
2022-12-17T07:23:39.187Z,-5.78411
2022-12-17T07:28:40.936Z,-5.98638
2022-12-17T07:33:42.686Z,-6.13753
2022-12-17T07:38:44.336Z,-6.3922
2022-12-17T07:43:51.289Z,-6.87454
2022-12-17T07:48:54.850Z,-6.32011
2022-12-17T07:53:56.461Z,-6.55382
2022-12-17T07:58:58.148Z,-6.34361
2022-12-17T08:03:59.777Z,-6.36108
2022-12-17T08:09:01.438Z,-6.39855
2022-12-17T08:14:03.115Z,-6.35314
2022-12-17T08:19:04.796Z,-5.59644
2022-12-17T08:24:06.383Z,-5.66566
2022-12-17T08:29:08.000Z,-5.55071
2022-12-17T08:34:09.647Z,-6.44745
2022-12-17T08:39:11.286Z,-6.68782
2022-12-17T08:44:12.897Z,-6.89168
2022-12-17T08:49:14.586Z,-7.06855
2022-12-17T08:54:16.183Z,-7.36132
2022-12-17T08:59:17.820Z,-7.36418
2022-12-17T09:04:19.414Z,-6.62876
2022-12-17T09:09:21.022Z,-7.25145
2022-12-17T09:14:22.649Z,-7.1908
2022-12-17T09:19:24.337Z,-7.18032
2022-12-17T09:24:25.954Z,-7.10062
2022-12-17T09:29:27.725Z,-6.37187
2022-12-17T09:34:29.333Z,-6.1877
2022-12-17T09:39:30.976Z,-5.92287
2022-12-17T09:44:32.665Z,-6.25375
2022-12-17T09:49:34.306Z,-5.91843
2022-12-17T09:54:35.965Z,-5.79077
2022-12-17T09:59:37.617Z,-6.14737
2022-12-17T10:04:39.216Z,-6.06418
2022-12-17T10:09:40.850Z,-6.65067
2022-12-17T10:14:42.655Z,-7.23367
2022-12-17T10:19:44.255Z,-6.8974
2022-12-17T10:24:45.910Z,-7.21398
2022-12-17T10:29:48.554Z,-6.91645
2022-12-17T10:34:50.493Z,-7.43467
2022-12-17T10:39:52.101Z,-6.96535
2022-12-17T10:44:53.770Z,-7.36481
2022-12-17T10:49:55.291Z,-7.11428
2022-12-17T10:54:57.127Z,-7.2016
2022-12-17T10:59:58.713Z,-7.41181
2022-12-17T11:05:00.324Z,-7.25177
2022-12-17T11:10:08.714Z,-7.2813
2022-12-17T11:15:11.256Z,-7.42737
2022-12-17T11:20:12.894Z,-7.1292
2022-12-17T11:25:14.490Z,-7.39307
2022-12-17T11:30:16.127Z,-7.00282
2022-12-17T11:35:17.792Z,-7.25272
2022-12-17T11:40:19.400Z,-7.27463
2022-12-17T11:45:21.036Z,-7.42832
2022-12-17T11:50:22.674Z,-7.53882
2022-12-17T11:55:24.281Z,-7.13015
2022-12-17T12:00:25.875Z,-7.18223
2022-12-17T12:05:27.505Z,-7.13396
2022-12-17T12:10:29.130Z,-7.0603
2022-12-17T12:15:30.925Z,-7.10094
2022-12-17T12:20:32.546Z,-6.86914
2022-12-17T12:25:34.175Z,-6.95614
2022-12-17T12:30:35.787Z,-6.91772
2022-12-17T12:35:37.382Z,-6.98091
2022-12-17T12:40:39.117Z,-6.83516
2022-12-17T12:45:40.984Z,-7.06665
2022-12-17T12:50:42.665Z,-7.32639
2022-12-17T12:55:44.293Z,-7.38831
2022-12-17T13:00:46.041Z,-7.17334
2022-12-17T13:05:47.742Z,-7.22605
2022-12-17T13:10:49.534Z,-7.10951
2022-12-17T13:15:51.393Z,-6.85644
2022-12-17T13:20:53.059Z,-5.86921
2022-12-17T13:25:54.623Z,-6.65004
2022-12-17T13:30:56.388Z,-6.59669
2022-12-17T13:35:58.013Z,-6.36838
2022-12-17T13:40:59.751Z,-6.92915
2022-12-17T13:46:01.457Z,-6.32297
2022-12-17T13:51:03.166Z,-5.66789
2022-12-17T13:56:04.979Z,-4.69652
2022-12-17T14:01:06.681Z,-4.50853
2022-12-17T14:06:08.389Z,-4.67239
2022-12-17T14:11:10.044Z,-5.44402
2022-12-17T14:16:11.761Z,-4.72669
2022-12-17T14:21:13.450Z,-4.51869
2022-12-17T14:26:15.144Z,-5.03153
2022-12-17T14:31:26.542Z,-4.50567
2022-12-17T14:36:29.197Z,-4.38469
2022-12-17T14:41:30.817Z,-5.40528
2022-12-17T14:46:32.508Z,-6.28677
2022-12-17T14:51:34.104Z,-6.22803
2022-12-17T14:56:35.708Z,-6.33345
2022-12-17T15:01:37.496Z,-5.3875
2022-12-17T15:06:39.193Z,-5.03947
2022-12-17T15:11:40.805Z,-4.63587
2022-12-17T15:16:42.539Z,-4.23354
2022-12-17T15:21:44.150Z,-4.80385
2022-12-17T15:26:45.854Z,-6.43697
2022-12-17T15:31:47.563Z,-6.2836
2022-12-17T15:36:49.389Z,-5.17125
2022-12-17T15:41:51.017Z,-5.59834
2022-12-17T15:46:52.703Z,-5.00962
2022-12-17T15:51:54.342Z,-5.68853
2022-12-17T15:56:56.034Z,-6.20898
2022-12-17T16:01:57.799Z,-5.54976
2022-12-17T16:06:59.587Z,-6.09815
2022-12-17T16:12:01.190Z,-5.44846
2022-12-17T16:17:02.761Z,-5.3043
2022-12-17T16:22:04.362Z,-4.62666
2022-12-17T16:27:06.069Z,-5.42687
2022-12-17T16:32:07.653Z,-4.9423
2022-12-17T16:37:09.283Z,-4.40311
2022-12-17T16:42:10.863Z,-4.18273
2022-12-17T16:47:12.464Z,-4.27323
2022-12-17T16:52:14.099Z,-4.12462
2022-12-17T16:57:15.873Z,-4.28498
2022-12-17T17:02:17.670Z,-4.26307
2022-12-17T17:07:19.408Z,-3.89217
2022-12-17T17:12:21.023Z,-4.14843
2022-12-17T17:17:55.780Z,-4.41327
2022-12-17T17:22:57.874Z,-4.49615
2022-12-17T17:27:59.534Z,-4.11096
2022-12-17T17:33:01.380Z,-4.04968
2022-12-17T17:38:02.976Z,-4.12144
2022-12-17T17:43:04.581Z,-4.13986
2022-12-17T17:48:06.233Z,-4.00713
2022-12-17T17:53:07.873Z,-3.70609
2022-12-17T17:58:10.475Z,-4.0265
2022-12-17T18:03:12.220Z,-3.96934
2022-12-17T18:08:13.897Z,-3.9922
2022-12-17T18:13:15.519Z,-3.7769
2022-12-17T18:18:17.136Z,-3.54731
2022-12-17T18:23:18.980Z,-3.39997
2022-12-17T18:28:20.666Z,-3.03225
2022-12-17T18:33:22.258Z,-2.75439
2022-12-17T18:38:23.849Z,-2.89348
2022-12-17T18:43:25.483Z,-3.46221
2022-12-17T18:48:27.113Z,-3.55875
2022-12-17T18:53:28.779Z,-3.79119
2022-12-17T18:58:30.392Z,-3.95378
2022-12-17T19:03:32.021Z,-4.83179
2022-12-17T19:08:33.768Z,-5.03947
2022-12-17T19:13:35.461Z,-3.77627
2022-12-17T19:18:37.504Z,-3.7153
2022-12-17T19:23:39.334Z,-4.9785
2022-12-17T19:28:40.940Z,-4.42851
2022-12-17T19:33:42.572Z,-3.64703
2022-12-17T19:38:44.243Z,-3.59526
2022-12-17T19:43:45.819Z,-4.74415
2022-12-17T19:48:48.977Z,-4.81465
2022-12-17T19:53:50.895Z,-3.96838
2022-12-17T19:58:52.596Z,-4.61745
2022-12-17T20:03:54.201Z,-3.38568
2022-12-17T20:08:55.865Z,-3.49524
2022-12-17T20:13:57.440Z,-4.27323
2022-12-17T20:18:59.041Z,-3.69498
2022-12-17T20:24:00.815Z,-3.36917
2022-12-17T20:29:02.511Z,-4.00236
2022-12-17T20:34:09.077Z,-3.72864
2022-12-17T20:39:10.763Z,-3.50254
2022-12-17T20:44:12.392Z,-3.23866
2022-12-17T20:49:14.839Z,-4.01157
2022-12-17T20:54:16.531Z,-3.75023
2022-12-17T20:59:18.165Z,-4.23322
2022-12-17T21:04:19.771Z,-4.38628
2022-12-17T21:09:21.385Z,-4.08969
2022-12-17T21:14:23.230Z,-5.00708
2022-12-17T21:19:24.813Z,-3.77786
2022-12-17T21:24:26.539Z,-3.83184
2022-12-17T21:29:28.179Z,-3.58701
2022-12-17T21:34:29.790Z,-3.82422
2022-12-17T21:39:31.462Z,-3.96838
2022-12-17T21:44:33.096Z,-3.97791
2022-12-17T21:49:34.822Z,-4.66381
2022-12-17T21:54:36.859Z,-3.8112
2022-12-17T21:59:39.165Z,-3.86709
2022-12-17T22:04:40.934Z,-4.20242
2022-12-17T22:09:51.252Z,-4.65206
2022-12-17T22:15:05.416Z,-4.88641
2022-12-17T22:20:07.482Z,-4.5768
2022-12-17T22:25:10.737Z,-4.73653
2022-12-17T22:30:13.711Z,-4.60538
2022-12-17T22:36:43.197Z,-4.10938
2022-12-17T22:44:54.534Z,-5.14648
2022-12-17T22:49:57.095Z,-4.69557
2022-12-17T22:54:59.416Z,-4.61332
2022-12-17T23:00:01.273Z,-4.38469
2022-12-17T23:05:02.990Z,-4.64857
2022-12-17T23:10:04.661Z,-4.60919
2022-12-17T23:15:06.534Z,-4.95437
2022-12-17T23:20:08.159Z,-5.38654
2022-12-17T23:25:10.041Z,-5.02359
2022-12-17T23:30:11.683Z,-5.431
2022-12-17T23:35:13.293Z,-4.8772
2022-12-17T23:40:14.993Z,-4.36786
2022-12-17T23:45:16.627Z,-4.15606
2022-12-17T23:50:18.278Z,-5.49324
2022-12-17T23:55:19.984Z,-4.70033
